createdAt,value
2023-04-24T00:01:02.342Z,2.00
2023-04-24T00:03:29.283Z,1.27
2023-04-24T00:05:56.068Z,1.47
2023-04-24T00:08:23.785Z,1.70
2023-04-24T00:10:50.284Z,1.40
2023-04-24T00:13:16.667Z,1.37
2023-04-24T00:15:43.086Z,2.13
2023-04-24T00:18:09.457Z,2.13
2023-04-24T00:20:38.523Z,1.53
2023-04-24T00:23:04.927Z,1.73
2023-04-24T00:25:31.403Z,1.80
2023-04-24T00:27:57.902Z,1.70
2023-04-24T00:30:24.301Z,1.60
2023-04-24T00:32:50.807Z,2.03
2023-04-24T00:35:17.634Z,1.93
2023-04-24T00:37:44.371Z,3.03
2023-04-24T00:40:11.621Z,1.80
2023-04-24T00:42:38.110Z,1.73
2023-04-24T00:45:05.453Z,1.67
2023-04-24T00:47:34.425Z,1.90
2023-04-24T00:50:05.650Z,1.73
2023-04-24T00:52:33.520Z,2.23
2023-04-24T00:55:00.415Z,2.07
2023-04-24T00:57:27.800Z,2.07
2023-04-24T00:59:55.006Z,3.63
2023-04-24T01:02:23.657Z,1.70
2023-04-24T01:04:51.963Z,1.47
2023-04-24T01:07:22.283Z,1.60
2023-04-24T01:09:52.996Z,1.80
2023-04-24T01:12:20.495Z,1.50
2023-04-24T01:14:47.077Z,2.40
2023-04-24T01:17:16.166Z,1.13
2023-04-24T01:19:46.207Z,1.47
2023-04-24T01:22:17.220Z,1.93
2023-04-24T01:24:44.179Z,1.50
2023-04-24T01:27:12.913Z,1.43
2023-04-24T01:29:40.203Z,2.00
2023-04-24T01:32:07.525Z,1.30
2023-04-24T01:34:34.936Z,1.10
2023-04-24T01:37:02.242Z,1.20
2023-04-24T01:39:29.602Z,1.00
2023-04-24T01:41:56.873Z,1.20
2023-04-24T01:44:23.900Z,0.90
2023-04-24T01:46:50.658Z,2.87
2023-04-24T01:49:17.302Z,0.90
2023-04-24T01:51:45.719Z,1.53
2023-04-24T01:54:12.815Z,2.03
2023-04-24T01:56:43.422Z,1.17
2023-04-24T01:59:12.107Z,0.93
2023-04-24T02:01:39.264Z,1.23
2023-04-24T02:04:07.026Z,2.23
2023-04-24T02:06:35.891Z,1.20
2023-04-24T02:09:03.989Z,1.63
2023-04-24T02:11:30.459Z,1.50
2023-04-24T02:13:57.964Z,1.20
2023-04-24T02:16:24.503Z,1.30
2023-04-24T02:18:51.189Z,2.37
2023-04-24T02:21:17.629Z,2.67
2023-04-24T02:23:44.017Z,1.50
2023-04-24T02:26:13.025Z,2.00
2023-04-24T02:28:39.429Z,2.47
2023-04-24T02:31:07.216Z,1.97
2023-04-24T02:33:34.145Z,1.60
2023-04-24T02:36:00.933Z,1.87
2023-04-24T02:38:27.817Z,1.60
2023-04-24T02:40:54.331Z,1.73
2023-04-24T02:43:21.131Z,1.60
2023-04-24T02:45:48.053Z,2.03
2023-04-24T02:48:14.627Z,1.20
2023-04-24T02:50:41.248Z,4.90
2023-04-24T02:53:07.688Z,1.27
2023-04-24T02:55:34.186Z,1.27
2023-04-24T02:58:00.934Z,1.87
2023-04-24T03:00:27.795Z,1.53
2023-04-24T03:02:54.441Z,1.20
2023-04-24T03:05:21.193Z,2.37
2023-04-24T03:07:48.041Z,1.83
2023-04-24T03:10:14.559Z,1.63
2023-04-24T03:12:41.860Z,2.00
2023-04-24T03:15:08.979Z,1.17
2023-04-24T03:17:37.956Z,1.97
2023-04-24T03:20:06.360Z,1.60
2023-04-24T03:22:33.784Z,1.70
2023-04-24T03:25:02.234Z,1.67
2023-04-24T03:27:28.810Z,1.30
2023-04-24T03:29:59.701Z,2.10
2023-04-24T03:32:34.775Z,1.77
2023-04-24T03:35:02.276Z,3.40
2023-04-24T03:37:29.184Z,1.70
2023-04-24T03:40:09.107Z,1.90
2023-04-24T03:42:39.115Z,1.50
2023-04-24T03:45:07.140Z,3.23
2023-04-24T03:47:36.293Z,2.63
2023-04-24T03:50:06.102Z,1.97
2023-04-24T03:52:33.886Z,1.60
2023-04-24T03:55:00.794Z,2.40
2023-04-24T03:57:29.764Z,1.47
2023-04-24T04:00:11.288Z,1.50
2023-04-24T04:02:41.147Z,1.93
2023-04-24T04:05:09.116Z,2.47
2023-04-24T04:07:35.603Z,2.30
2023-04-24T04:10:02.427Z,2.00
2023-04-24T04:12:29.291Z,2.17
2023-04-24T04:14:55.801Z,1.70
2023-04-24T04:17:22.716Z,2.03
2023-04-24T04:19:49.362Z,2.17
2023-04-24T04:22:15.795Z,4.13
2023-04-24T04:24:47.194Z,1.47
2023-04-24T04:27:14.296Z,2.47
2023-04-24T04:29:48.145Z,4.33
2023-04-24T04:32:16.991Z,1.57
2023-04-24T04:34:43.726Z,1.40
2023-04-24T04:37:13.542Z,2.30
2023-04-24T04:40:01.716Z,1.50
2023-04-24T04:42:41.214Z,2.03
2023-04-24T04:45:12.335Z,2.00
2023-04-24T04:47:52.053Z,1.97
2023-04-24T04:50:19.520Z,2.30
2023-04-24T04:52:48.628Z,2.90
2023-04-24T04:55:23.354Z,1.80
2023-04-24T04:58:25.551Z,3.50
2023-04-24T05:00:55.995Z,1.50
2023-04-24T05:03:27.760Z,4.07
2023-04-24T05:06:03.163Z,1.20
2023-04-24T05:08:33.134Z,1.57
2023-04-24T05:10:59.977Z,1.93
2023-04-24T05:13:39.276Z,1.37
2023-04-24T05:16:15.862Z,1.87
2023-04-24T05:18:42.483Z,1.70
2023-04-24T05:21:11.367Z,1.47
2023-04-24T05:23:40.638Z,1.50
2023-04-24T05:26:07.924Z,3.47
2023-04-24T05:28:37.394Z,1.50
2023-04-24T05:31:08.364Z,1.63
2023-04-24T05:33:35.458Z,1.93
2023-04-24T05:36:02.254Z,2.27
2023-04-24T05:38:28.786Z,2.20
2023-04-24T05:40:55.432Z,1.53
2023-04-24T05:43:21.934Z,1.60
2023-04-24T05:45:48.426Z,3.17
2023-04-24T05:48:14.915Z,1.80
2023-04-24T05:50:41.336Z,2.33
2023-04-24T05:53:08.220Z,1.70
2023-04-24T05:55:36.898Z,2.53
2023-04-24T05:58:03.795Z,2.00
2023-04-24T06:00:31.211Z,2.33
2023-04-24T06:03:05.038Z,2.20
2023-04-24T06:05:32.518Z,4.97
2023-04-24T06:07:59.011Z,2.63
2023-04-24T06:10:29.818Z,2.60
2023-04-24T06:13:02.263Z,2.93
2023-04-24T06:15:31.933Z,2.80
2023-04-24T06:18:04.294Z,3.77
2023-04-24T06:20:30.829Z,3.77
2023-04-24T06:22:57.312Z,4.63
2023-04-24T06:25:27.181Z,5.83
2023-04-24T06:27:53.889Z,6.83
2023-04-24T06:30:20.383Z,8.00
2023-04-24T06:32:47.151Z,7.53
2023-04-24T06:35:15.586Z,8.00
2023-04-24T06:37:43.114Z,8.27
2023-04-24T06:40:10.229Z,10.00
2023-04-24T06:42:37.399Z,8.73
2023-04-24T06:45:04.577Z,7.87
2023-04-24T06:47:31.109Z,7.87
2023-04-24T06:49:58.080Z,7.83
2023-04-24T06:52:24.492Z,9.13
2023-04-24T06:54:50.997Z,8.17
2023-04-24T06:57:19.271Z,8.00
2023-04-24T06:59:46.048Z,15.73
2023-04-24T07:02:12.609Z,10.67
2023-04-24T07:04:39.175Z,8.47
2023-04-24T07:07:06.987Z,9.63
2023-04-24T07:09:33.402Z,8.70
2023-04-24T07:11:59.793Z,10.60
2023-04-24T07:14:26.496Z,10.90
2023-04-24T07:16:53.052Z,9.87
2023-04-24T07:19:19.486Z,9.17
2023-04-24T07:21:46.310Z,9.93
2023-04-24T07:24:13.823Z,8.83
2023-04-24T07:26:41.100Z,11.13
2023-04-24T07:29:08.502Z,9.47
2023-04-24T07:31:35.137Z,9.33
2023-04-24T07:34:02.405Z,10.90
2023-04-24T07:36:28.992Z,11.77
2023-04-24T07:38:56.469Z,10.13
2023-04-24T07:41:25.035Z,12.07
2023-04-24T07:43:51.993Z,13.97
2023-04-24T07:46:18.516Z,10.97
2023-04-24T07:48:44.970Z,10.30
2023-04-24T07:51:13.265Z,12.17
2023-04-24T07:53:39.696Z,10.77
2023-04-24T07:56:06.175Z,11.77
2023-04-24T07:58:32.614Z,11.87
2023-04-24T08:00:59.062Z,12.20
2023-04-24T08:03:25.862Z,12.73
2023-04-24T08:05:52.585Z,13.87
2023-04-24T08:08:22.344Z,11.97
2023-04-24T08:10:48.875Z,12.97
2023-04-24T08:13:15.425Z,13.63
2023-04-24T08:15:41.960Z,14.10
2023-04-24T08:18:08.568Z,12.80
2023-04-24T08:20:35.543Z,12.47
2023-04-24T08:23:02.417Z,14.30
2023-04-24T08:25:28.840Z,14.63
2023-04-24T08:27:55.679Z,13.57
2023-04-24T08:30:22.325Z,12.53
2023-04-24T08:32:48.858Z,13.67
2023-04-24T08:35:15.293Z,13.73
2023-04-24T08:37:41.833Z,13.73
2023-04-24T08:40:15.256Z,14.73
2023-04-24T08:42:46.054Z,11.10
2023-04-24T08:45:13.844Z,26.47
2023-04-24T08:47:41.744Z,11.87
2023-04-24T08:50:10.479Z,12.50
2023-04-24T08:52:37.527Z,12.27
2023-04-24T08:55:04.761Z,12.47
2023-04-24T08:57:33.188Z,14.40
2023-04-24T09:00:00.767Z,10.37
2023-04-24T09:02:28.134Z,9.90
2023-04-24T09:04:56.691Z,11.00
2023-04-24T09:07:28.829Z,9.47
2023-04-24T09:09:55.945Z,8.83
2023-04-24T09:12:22.815Z,8.00
2023-04-24T09:14:50.908Z,7.80
2023-04-24T09:17:17.413Z,12.40
2023-04-24T09:19:43.947Z,8.50
2023-04-24T09:22:10.601Z,7.03
2023-04-24T09:24:37.478Z,8.40
2023-04-24T09:27:04.985Z,7.43
2023-04-24T09:29:32.830Z,8.27
2023-04-24T09:31:59.877Z,7.57
2023-04-24T09:34:28.334Z,8.63
2023-04-24T09:36:55.738Z,7.90
2023-04-24T09:39:22.200Z,6.90
2023-04-24T09:41:50.721Z,6.27
2023-04-24T09:44:22.203Z,7.47
2023-04-24T09:46:54.512Z,6.20
2023-04-24T09:49:25.476Z,6.10
2023-04-24T09:51:52.688Z,7.30
2023-04-24T09:54:21.697Z,6.03
2023-04-24T09:56:50.590Z,5.73
2023-04-24T09:59:19.718Z,6.93
2023-04-24T10:01:46.960Z,7.63
2023-04-24T10:04:18.228Z,6.67
2023-04-24T10:06:46.078Z,6.47
2023-04-24T10:09:16.209Z,5.77
2023-04-24T10:11:47.966Z,4.93
2023-04-24T10:14:22.643Z,5.60
2023-04-24T10:16:50.219Z,5.13
2023-04-24T10:19:17.518Z,4.30
2023-04-24T10:21:47.521Z,4.37
2023-04-24T10:24:19.307Z,4.37
2023-04-24T10:26:53.574Z,3.87
2023-04-24T10:29:20.686Z,3.83
2023-04-24T10:31:47.996Z,4.37
2023-04-24T10:34:17.544Z,3.50
2023-04-24T10:36:49.546Z,3.33
2023-04-24T10:39:17.475Z,3.40
2023-04-24T10:41:44.222Z,5.50
2023-04-24T10:44:13.389Z,3.30
2023-04-24T10:46:46.421Z,3.27
2023-04-24T10:49:13.083Z,3.20
2023-04-24T10:51:53.940Z,2.90
2023-04-24T10:54:23.457Z,4.47
2023-04-24T10:56:51.532Z,4.00
2023-04-24T10:59:35.757Z,2.80
2023-04-24T11:02:02.645Z,3.37
2023-04-24T11:04:33.841Z,4.33
2023-04-24T11:07:01.077Z,3.47
2023-04-24T11:09:35.057Z,3.33
2023-04-24T11:12:15.124Z,3.60
2023-04-24T11:14:57.596Z,2.93
2023-04-24T11:17:34.991Z,3.33
2023-04-24T11:20:24.957Z,3.87
2023-04-24T11:22:58.766Z,3.80
2023-04-24T11:25:25.914Z,3.97
2023-04-24T11:28:04.318Z,3.53
2023-04-24T11:30:32.598Z,3.27
2023-04-24T11:33:04.720Z,4.07
2023-04-24T11:35:39.743Z,3.00
2023-04-24T11:38:23.201Z,2.87
2023-04-24T11:40:52.845Z,3.73
2023-04-24T11:43:20.293Z,3.70
2023-04-24T11:45:50.312Z,3.77
2023-04-24T11:48:22.773Z,3.00
2023-04-24T11:50:49.810Z,2.63
2023-04-24T11:53:16.212Z,2.77
2023-04-24T11:55:42.782Z,2.50
2023-04-24T11:58:09.358Z,2.77
2023-04-24T12:00:36.467Z,2.40
2023-04-24T12:03:10.894Z,2.80
2023-04-24T12:05:38.843Z,2.30
2023-04-24T12:08:05.956Z,2.00
2023-04-24T12:10:33.740Z,1.90
2023-04-24T12:13:00.952Z,2.37
2023-04-24T12:15:28.488Z,2.10
2023-04-24T12:17:56.789Z,1.77
2023-04-24T12:20:29.438Z,3.20
2023-04-24T12:22:57.668Z,3.63
2023-04-24T12:25:35.533Z,2.63
2023-04-24T12:28:05.705Z,3.63
2023-04-24T12:30:40.439Z,4.67
2023-04-24T12:33:06.927Z,9.17
2023-04-24T12:35:34.969Z,6.60
2023-04-24T12:38:16.346Z,4.17
2023-04-24T12:40:43.890Z,5.03
2023-04-24T12:43:18.180Z,7.20
2023-04-24T12:45:46.106Z,5.93
2023-04-24T12:48:13.229Z,5.50
2023-04-24T12:50:39.751Z,4.87
2023-04-24T12:53:07.517Z,4.70
2023-04-24T12:55:33.998Z,4.70
2023-04-24T12:58:00.529Z,4.70
2023-04-24T13:00:27.669Z,5.23
2023-04-24T13:02:54.618Z,4.90
2023-04-24T13:05:22.446Z,4.20
2023-04-24T13:07:50.117Z,4.87
2023-04-24T13:10:16.543Z,4.53
2023-04-24T13:12:46.353Z,4.10
2023-04-24T13:15:13.501Z,7.33
2023-04-24T13:17:39.973Z,4.70
2023-04-24T13:20:07.385Z,3.70
2023-04-24T13:22:33.845Z,3.70
2023-04-24T13:25:00.589Z,2.63
2023-04-24T13:27:27.569Z,2.10
2023-04-24T13:29:53.958Z,3.30
2023-04-24T13:32:20.872Z,2.60
2023-04-24T13:34:47.432Z,2.17
2023-04-24T13:37:14.003Z,2.47
2023-04-24T13:39:42.476Z,3.13
2023-04-24T13:42:09.554Z,2.53
2023-04-24T13:44:35.947Z,2.33
2023-04-24T13:47:02.420Z,2.53
2023-04-24T13:49:29.211Z,2.83
2023-04-24T13:51:56.690Z,3.20
2023-04-24T13:54:24.536Z,3.73
2023-04-24T13:56:52.699Z,3.90
2023-04-24T13:59:21.258Z,3.50
2023-04-24T14:01:48.675Z,3.97
2023-04-24T14:04:15.623Z,3.73
2023-04-24T14:06:42.227Z,4.73
2023-04-24T14:09:08.878Z,7.13
2023-04-24T14:11:36.019Z,4.50
2023-04-24T14:14:02.454Z,5.23
2023-04-24T14:16:29.599Z,6.40
2023-04-24T14:18:57.106Z,5.57
2023-04-24T14:21:23.535Z,7.57
2023-04-24T14:23:49.971Z,5.73
2023-04-24T14:26:16.382Z,6.87
2023-04-24T14:28:42.862Z,5.50
2023-04-24T14:31:10.109Z,5.00
2023-04-24T14:33:36.613Z,4.83
2023-04-24T14:36:03.888Z,7.03
2023-04-24T14:38:31.240Z,6.53
2023-04-24T14:41:06.801Z,7.63
2023-04-24T14:43:36.094Z,7.63
2023-04-24T14:46:03.436Z,9.97
2023-04-24T14:48:29.904Z,6.53
2023-04-24T14:50:56.397Z,7.60
2023-04-24T14:53:22.866Z,9.07
2023-04-24T14:55:49.426Z,7.27
2023-04-24T14:58:15.900Z,8.90
2023-04-24T15:00:42.403Z,7.27
2023-04-24T15:03:09.646Z,10.73
2023-04-24T15:05:36.837Z,7.80
2023-04-24T15:08:03.388Z,7.90
2023-04-24T15:10:30.628Z,9.17
2023-04-24T15:12:57.209Z,10.50
2023-04-24T15:15:23.813Z,7.73
2023-04-24T15:17:50.383Z,9.07
2023-04-24T15:20:17.149Z,14.53
2023-04-24T15:22:43.576Z,9.43
2023-04-24T15:25:11.078Z,9.80
2023-04-24T15:27:42.402Z,10.63
2023-04-24T15:30:09.923Z,11.03
2023-04-24T15:32:36.461Z,11.33
2023-04-24T15:35:08.413Z,10.57
2023-04-24T15:37:36.667Z,10.20
2023-04-24T15:40:05.890Z,13.07
2023-04-24T15:42:32.352Z,15.10
2023-04-24T15:44:58.951Z,8.97
2023-04-24T15:47:26.460Z,10.40
2023-04-24T15:49:53.858Z,9.97
2023-04-24T15:52:20.455Z,13.90
2023-04-24T15:54:47.169Z,11.57
2023-04-24T15:57:13.541Z,10.60
2023-04-24T15:59:40.195Z,11.10
2023-04-24T16:02:10.440Z,11.73
2023-04-24T16:04:37.582Z,8.03
2023-04-24T16:07:04.189Z,9.27
2023-04-24T16:09:30.804Z,8.50
2023-04-24T16:11:57.285Z,11.33
2023-04-24T16:14:25.364Z,12.67
2023-04-24T16:16:51.760Z,11.63
2023-04-24T16:19:18.136Z,7.60
2023-04-24T16:21:44.539Z,10.60
2023-04-24T16:24:11.540Z,8.47
2023-04-24T16:26:38.070Z,8.83
2023-04-24T16:29:04.518Z,6.17
2023-04-24T16:31:31.409Z,6.90
2023-04-24T16:33:57.904Z,7.30
2023-04-24T16:36:24.423Z,5.50
2023-04-24T16:38:51.054Z,13.00
2023-04-24T16:41:18.324Z,9.93
2023-04-24T16:43:44.814Z,8.33
2023-04-24T16:46:11.474Z,5.87
2023-04-24T16:48:37.921Z,6.60
2023-04-24T16:51:04.410Z,8.97
2023-04-24T16:53:30.841Z,7.57
2023-04-24T16:55:57.347Z,7.43
2023-04-24T16:58:23.853Z,4.33
2023-04-24T17:00:50.425Z,7.43
2023-04-24T17:03:17.944Z,5.70
2023-04-24T17:05:44.525Z,5.30
2023-04-24T17:08:10.947Z,5.00
2023-04-24T17:10:37.360Z,4.57
2023-04-24T17:13:03.791Z,5.73
2023-04-24T17:15:30.589Z,5.67
2023-04-24T17:17:57.656Z,6.60
2023-04-24T17:20:25.474Z,4.57
2023-04-24T17:22:52.949Z,6.03
2023-04-24T17:25:19.913Z,3.63
2023-04-24T17:27:46.492Z,5.97
2023-04-24T17:30:14.636Z,6.87
2023-04-24T17:32:41.562Z,5.90
2023-04-24T17:35:08.346Z,5.77
2023-04-24T17:37:35.845Z,5.87
2023-04-24T17:40:03.523Z,6.90
2023-04-24T17:42:29.942Z,7.30
2023-04-24T17:44:56.334Z,6.63
2023-04-24T17:47:26.147Z,7.10
2023-04-24T17:49:52.791Z,6.33
2023-04-24T17:52:19.234Z,4.73
2023-04-24T17:54:46.159Z,5.97
2023-04-24T17:57:13.259Z,7.10
2023-04-24T17:59:39.697Z,5.27
2023-04-24T18:02:06.389Z,5.63
2023-04-24T18:04:32.988Z,5.33
2023-04-24T18:06:59.462Z,5.13
2023-04-24T18:09:26.202Z,4.67
2023-04-24T18:11:52.634Z,4.20
2023-04-24T18:14:19.091Z,4.73
2023-04-24T18:16:45.633Z,9.17
2023-04-24T18:19:12.096Z,5.57
2023-04-24T18:21:38.501Z,7.10
2023-04-24T18:24:05.268Z,4.70
2023-04-24T18:26:31.749Z,8.17
2023-04-24T18:28:58.392Z,6.50
2023-04-24T18:31:25.038Z,5.43
2023-04-24T18:33:53.393Z,5.43
2023-04-24T18:36:20.200Z,5.33
2023-04-24T18:38:46.832Z,6.53
2023-04-24T18:41:14.374Z,9.47
2023-04-24T18:43:40.877Z,5.07
2023-04-24T18:46:07.353Z,6.67
2023-04-24T18:48:33.764Z,5.37
2023-04-24T18:51:00.454Z,6.73
2023-04-24T18:53:27.585Z,7.63
2023-04-24T18:55:54.234Z,6.50
2023-04-24T18:58:20.693Z,6.17
2023-04-24T19:00:47.389Z,7.37
2023-04-24T19:03:13.991Z,4.73
2023-04-24T19:05:40.517Z,5.47
2023-04-24T19:08:06.974Z,8.13
2023-04-24T19:10:34.264Z,7.13
2023-04-24T19:13:02.263Z,7.00
2023-04-24T19:15:29.855Z,12.73
2023-04-24T19:17:56.752Z,8.07
2023-04-24T19:20:23.456Z,8.00
2023-04-24T19:22:50.814Z,8.17
2023-04-24T19:25:17.564Z,7.77
2023-04-24T19:27:44.046Z,12.17
2023-04-24T19:30:10.894Z,6.73
2023-04-24T19:32:37.324Z,9.53
2023-04-24T19:35:03.923Z,6.93
2023-04-24T19:37:32.216Z,11.17
2023-04-24T19:39:58.865Z,10.17
2023-04-24T19:42:35.854Z,7.17
2023-04-24T19:45:09.473Z,8.70
2023-04-24T19:47:35.964Z,12.03
2023-04-24T19:50:02.381Z,6.60
2023-04-24T19:52:29.022Z,7.80
2023-04-24T19:54:55.641Z,7.60
2023-04-24T19:57:22.228Z,6.87
2023-04-24T19:59:48.590Z,8.40
2023-04-24T20:02:15.128Z,6.07
2023-04-24T20:04:41.933Z,11.47
2023-04-24T20:07:08.783Z,7.40
2023-04-24T20:09:35.258Z,14.27
2023-04-24T20:12:02.766Z,9.57
2023-04-24T20:14:29.245Z,13.30
2023-04-24T20:16:55.687Z,16.03
2023-04-24T20:19:22.142Z,7.90
2023-04-24T20:21:48.582Z,9.23
2023-04-24T20:24:16.128Z,6.80
2023-04-24T20:26:42.857Z,11.13
2023-04-24T20:29:09.395Z,10.40
2023-04-24T20:31:36.072Z,6.60
2023-04-24T20:34:02.973Z,9.90
2023-04-24T20:36:29.432Z,6.90
2023-04-24T20:38:57.168Z,8.50
2023-04-24T20:41:24.646Z,9.87
2023-04-24T20:43:51.066Z,11.33
2023-04-24T20:46:17.504Z,12.10
2023-04-24T20:48:43.991Z,19.13
2023-04-24T20:51:10.510Z,12.43
2023-04-24T20:53:36.944Z,12.07
2023-04-24T20:56:03.438Z,10.73
2023-04-24T20:58:29.983Z,10.77
2023-04-24T21:00:56.751Z,7.77
2023-04-24T21:03:23.498Z,9.93
2023-04-24T21:05:50.186Z,11.33
2023-04-24T21:08:17.015Z,10.57
2023-04-24T21:10:43.491Z,11.67
2023-04-24T21:13:10.050Z,9.03
2023-04-24T21:15:36.719Z,8.63
2023-04-24T21:18:03.714Z,8.93
2023-04-24T21:20:30.357Z,8.13
2023-04-24T21:22:57.033Z,9.23
2023-04-24T21:25:23.460Z,10.13
2023-04-24T21:27:50.049Z,11.70
2023-04-24T21:30:16.633Z,13.33
2023-04-24T21:32:43.274Z,9.53
2023-04-24T21:35:09.959Z,13.40
2023-04-24T21:37:37.695Z,10.47
2023-04-24T21:40:04.699Z,9.53
2023-04-24T21:42:31.707Z,13.33
2023-04-24T21:44:58.486Z,14.53
2023-04-24T21:47:25.254Z,8.03
2023-04-24T21:49:51.735Z,11.77
2023-04-24T21:52:18.157Z,11.23
2023-04-24T21:54:44.711Z,9.17
2023-04-24T21:57:11.821Z,10.33
2023-04-24T21:59:38.448Z,10.53
2023-04-24T22:02:04.929Z,8.07
2023-04-24T22:04:31.537Z,11.13
2023-04-24T22:06:58.185Z,15.60
2023-04-24T22:09:24.697Z,11.77
2023-04-24T22:11:51.107Z,13.83
2023-04-24T22:14:17.556Z,10.30
2023-04-24T22:16:46.289Z,13.37
2023-04-24T22:19:12.694Z,11.57
2023-04-24T22:21:40.389Z,14.90
2023-04-24T22:24:07.486Z,13.77
2023-04-24T22:26:34.038Z,14.17
2023-04-24T22:29:00.952Z,14.07
2023-04-24T22:31:27.876Z,17.03
2023-04-24T22:33:54.481Z,13.07
2023-04-24T22:36:21.340Z,17.17
2023-04-24T22:38:47.773Z,12.43
2023-04-24T22:41:14.353Z,14.57
2023-04-24T22:43:40.844Z,13.80
2023-04-24T22:46:07.279Z,16.63
2023-04-24T22:48:34.373Z,15.80
2023-04-24T22:51:01.176Z,14.67
2023-04-24T22:53:28.892Z,16.13
2023-04-24T22:55:56.640Z,12.50
2023-04-24T22:58:23.785Z,14.43
2023-04-24T23:00:50.745Z,15.93
2023-04-24T23:03:17.392Z,15.70
2023-04-24T23:05:43.999Z,13.47
2023-04-24T23:08:10.423Z,13.00
2023-04-24T23:10:36.958Z,15.57
2023-04-24T23:13:03.584Z,16.13
2023-04-24T23:15:30.015Z,11.50
2023-04-24T23:17:56.693Z,16.53
2023-04-24T23:20:23.328Z,15.90
2023-04-24T23:22:49.857Z,10.93
2023-04-24T23:25:16.269Z,18.13
2023-04-24T23:27:42.714Z,16.30
2023-04-24T23:30:09.566Z,16.03
2023-04-24T23:32:36.047Z,15.90
2023-04-24T23:35:02.573Z,14.50
2023-04-24T23:37:29.327Z,18.90
2023-04-24T23:39:55.792Z,18.37
2023-04-24T23:42:22.253Z,14.67
2023-04-24T23:44:48.704Z,18.40
2023-04-24T23:47:15.276Z,14.27
2023-04-24T23:49:41.647Z,16.83
2023-04-24T23:52:08.080Z,15.97
2023-04-24T23:54:34.951Z,15.47
2023-04-24T23:57:03.213Z,12.20
2023-04-24T23:59:30.548Z,15.43
